sensor_id;sensor_type;location;lat;lon;timestamp;P1;durP1;ratioP1;P2;durP2;ratioP2
76113;SDS011;64845;53.086;5.834;2023-03-25T00:02:00;26.10;;;3.50;;
76113;SDS011;64845;53.086;5.834;2023-03-25T00:04:25;17.75;;;3.08;;
76113;SDS011;64845;53.086;5.834;2023-03-25T00:06:54;28.42;;;3.53;;
76113;SDS011;64845;53.086;5.834;2023-03-25T00:09:20;33.70;;;4.43;;
76113;SDS011;64845;53.086;5.834;2023-03-25T00:11:48;20.77;;;3.35;;
76113;SDS011;64845;53.086;5.834;2023-03-25T00:14:14;26.15;;;3.83;;
76113;SDS011;64845;53.086;5.834;2023-03-25T00:16:41;26.88;;;4.05;;
76113;SDS011;64845;53.086;5.834;2023-03-25T00:19:07;26.65;;;3.80;;
76113;SDS011;64845;53.086;5.834;2023-03-25T00:21:33;22.77;;;2.72;;
76113;SDS011;64845;53.086;5.834;2023-03-25T00:23:59;20.15;;;3.35;;
76113;SDS011;64845;53.086;5.834;2023-03-25T00:26:26;32.10;;;4.85;;
76113;SDS011;64845;53.086;5.834;2023-03-25T00:28:54;33.28;;;4.70;;
76113;SDS011;64845;53.086;5.834;2023-03-25T00:31:19;21.88;;;3.88;;
76113;SDS011;64845;53.086;5.834;2023-03-25T00:33:45;33.42;;;4.13;;
76113;SDS011;64845;53.086;5.834;2023-03-25T00:36:11;20.55;;;3.30;;
76113;SDS011;64845;53.086;5.834;2023-03-25T00:38:42;31.35;;;4.40;;
76113;SDS011;64845;53.086;5.834;2023-03-25T00:43:46;30.95;;;3.40;;
76113;SDS011;64845;53.086;5.834;2023-03-25T00:46:13;18.33;;;3.25;;
76113;SDS011;64845;53.086;5.834;2023-03-25T00:48:40;29.20;;;4.60;;
76113;SDS011;64845;53.086;5.834;2023-03-25T00:51:06;33.72;;;4.68;;
76113;SDS011;64845;53.086;5.834;2023-03-25T00:53:38;26.52;;;3.80;;
76113;SDS011;64845;53.086;5.834;2023-03-25T00:56:04;22.90;;;3.13;;
76113;SDS011;64845;53.086;5.834;2023-03-25T00:58:30;24.33;;;3.53;;
76113;SDS011;64845;53.086;5.834;2023-03-25T01:00:56;30.88;;;4.15;;
76113;SDS011;64845;53.086;5.834;2023-03-25T01:03:22;26.17;;;4.03;;
76113;SDS011;64845;53.086;5.834;2023-03-25T01:05:48;26.20;;;4.45;;
76113;SDS011;64845;53.086;5.834;2023-03-25T01:08:14;20.25;;;4.07;;
76113;SDS011;64845;53.086;5.834;2023-03-25T01:10:41;25.35;;;3.75;;
76113;SDS011;64845;53.086;5.834;2023-03-25T01:13:07;25.08;;;4.05;;
76113;SDS011;64845;53.086;5.834;2023-03-25T01:15:33;24.58;;;3.70;;
76113;SDS011;64845;53.086;5.834;2023-03-25T01:17:59;19.95;;;3.83;;
76113;SDS011;64845;53.086;5.834;2023-03-25T01:20:24;21.48;;;4.18;;
76113;SDS011;64845;53.086;5.834;2023-03-25T01:22:50;35.63;;;4.40;;
76113;SDS011;64845;53.086;5.834;2023-03-25T01:25:16;28.33;;;4.75;;
76113;SDS011;64845;53.086;5.834;2023-03-25T01:27:41;24.23;;;4.28;;
76113;SDS011;64845;53.086;5.834;2023-03-25T01:30:07;26.63;;;4.22;;
76113;SDS011;64845;53.086;5.834;2023-03-25T01:32:33;24.27;;;4.38;;
76113;SDS011;64845;53.086;5.834;2023-03-25T01:34:58;25.77;;;4.45;;
76113;SDS011;64845;53.086;5.834;2023-03-25T01:37:24;23.60;;;3.17;;
76113;SDS011;64845;53.086;5.834;2023-03-25T01:39:49;34.67;;;5.40;;
76113;SDS011;64845;53.086;5.834;2023-03-25T01:42:15;24.80;;;3.55;;
76113;SDS011;64845;53.086;5.834;2023-03-25T01:47:08;22.80;;;3.65;;
76113;SDS011;64845;53.086;5.834;2023-03-25T01:52:06;20.92;;;4.18;;
76113;SDS011;64845;53.086;5.834;2023-03-25T01:54:36;30.27;;;4.00;;
76113;SDS011;64845;53.086;5.834;2023-03-25T01:57:03;29.20;;;4.20;;
76113;SDS011;64845;53.086;5.834;2023-03-25T01:59:30;29.67;;;4.65;;
76113;SDS011;64845;53.086;5.834;2023-03-25T02:01:56;28.65;;;4.63;;
76113;SDS011;64845;53.086;5.834;2023-03-25T02:04:29;29.27;;;4.00;;
76113;SDS011;64845;53.086;5.834;2023-03-25T02:07:03;41.58;;;5.43;;
76113;SDS011;64845;53.086;5.834;2023-03-25T02:09:32;32.30;;;4.47;;
76113;SDS011;64845;53.086;5.834;2023-03-25T02:11:57;23.00;;;4.38;;
76113;SDS011;64845;53.086;5.834;2023-03-25T02:14:24;29.60;;;4.55;;
76113;SDS011;64845;53.086;5.834;2023-03-25T02:17:05;29.13;;;5.47;;
76113;SDS011;64845;53.086;5.834;2023-03-25T02:28:10;28.05;;;3.83;;
76113;SDS011;64845;53.086;5.834;2023-03-25T02:31:10;26.17;;;4.72;;
76113;SDS011;64845;53.086;5.834;2023-03-25T02:39:30;33.25;;;5.53;;
76113;SDS011;64845;53.086;5.834;2023-03-25T02:47:21;19.05;;;3.83;;
76113;SDS011;64845;53.086;5.834;2023-03-25T02:49:56;33.10;;;6.10;;
76113;SDS011;64845;53.086;5.834;2023-03-25T02:52:30;30.05;;;4.55;;
76113;SDS011;64845;53.086;5.834;2023-03-25T02:55:02;33.42;;;4.70;;
76113;SDS011;64845;53.086;5.834;2023-03-25T02:57:34;30.50;;;3.67;;
76113;SDS011;64845;53.086;5.834;2023-03-25T03:00:04;38.70;;;5.57;;
76113;SDS011;64845;53.086;5.834;2023-03-25T03:02:38;28.83;;;4.38;;
76113;SDS011;64845;53.086;5.834;2023-03-25T03:05:18;38.33;;;4.45;;
76113;SDS011;64845;53.086;5.834;2023-03-25T03:07:46;33.30;;;3.88;;
76113;SDS011;64845;53.086;5.834;2023-03-25T03:10:29;29.33;;;4.20;;
76113;SDS011;64845;53.086;5.834;2023-03-25T03:21:19;27.75;;;3.92;;
76113;SDS011;64845;53.086;5.834;2023-03-25T03:26:27;40.85;;;5.85;;
76113;SDS011;64845;53.086;5.834;2023-03-25T03:32:15;31.60;;;4.70;;
76113;SDS011;64845;53.086;5.834;2023-03-25T03:34:47;22.80;;;3.90;;
76113;SDS011;64845;53.086;5.834;2023-03-25T03:37:20;26.50;;;4.05;;
76113;SDS011;64845;53.086;5.834;2023-03-25T03:40:09;30.02;;;4.63;;
76113;SDS011;64845;53.086;5.834;2023-03-25T03:42:51;28.85;;;4.28;;
76113;SDS011;64845;53.086;5.834;2023-03-25T03:45:24;24.33;;;4.15;;
76113;SDS011;64845;53.086;5.834;2023-03-25T03:47:53;28.58;;;3.97;;
76113;SDS011;64845;53.086;5.834;2023-03-25T03:50:25;24.88;;;4.75;;
76113;SDS011;64845;53.086;5.834;2023-03-25T03:53:04;33.58;;;5.43;;
76113;SDS011;64845;53.086;5.834;2023-03-25T03:55:45;34.67;;;5.18;;
76113;SDS011;64845;53.086;5.834;2023-03-25T03:58:25;36.47;;;5.45;;
76113;SDS011;64845;53.086;5.834;2023-03-25T04:01:06;23.00;;;3.72;;
76113;SDS011;64845;53.086;5.834;2023-03-25T04:12:06;22.33;;;3.78;;
76113;SDS011;64845;53.086;5.834;2023-03-25T04:14:38;26.85;;;4.93;;
76113;SDS011;64845;53.086;5.834;2023-03-25T04:17:04;30.80;;;5.13;;
76113;SDS011;64845;53.086;5.834;2023-03-25T04:19:30;34.85;;;4.18;;
76113;SDS011;64845;53.086;5.834;2023-03-25T04:21:58;32.83;;;4.63;;
76113;SDS011;64845;53.086;5.834;2023-03-25T04:24:25;23.33;;;3.63;;
76113;SDS011;64845;53.086;5.834;2023-03-25T04:26:58;14.52;;;2.95;;
76113;SDS011;64845;53.086;5.834;2023-03-25T04:29:28;28.83;;;4.18;;
76113;SDS011;64845;53.086;5.834;2023-03-25T04:31:55;30.10;;;4.30;;
76113;SDS011;64845;53.086;5.834;2023-03-25T04:34:21;30.65;;;5.38;;
76113;SDS011;64845;53.086;5.834;2023-03-25T04:36:47;25.67;;;3.85;;
76113;SDS011;64845;53.086;5.834;2023-03-25T04:39:14;32.40;;;4.50;;
76113;SDS011;64845;53.086;5.834;2023-03-25T04:41:41;26.75;;;4.28;;
76113;SDS011;64845;53.086;5.834;2023-03-25T04:44:08;31.35;;;4.03;;
76113;SDS011;64845;53.086;5.834;2023-03-25T04:46:34;20.73;;;4.13;;
76113;SDS011;64845;53.086;5.834;2023-03-25T04:49:00;38.95;;;5.50;;
76113;SDS011;64845;53.086;5.834;2023-03-25T04:51:27;30.83;;;4.03;;
76113;SDS011;64845;53.086;5.834;2023-03-25T04:53:54;26.05;;;4.03;;
76113;SDS011;64845;53.086;5.834;2023-03-25T04:56:20;37.03;;;5.05;;
76113;SDS011;64845;53.086;5.834;2023-03-25T04:58:47;34.95;;;5.25;;
76113;SDS011;64845;53.086;5.834;2023-03-25T05:01:26;41.03;;;5.05;;
76113;SDS011;64845;53.086;5.834;2023-03-25T05:03:59;35.33;;;5.72;;
76113;SDS011;64845;53.086;5.834;2023-03-25T05:06:33;35.00;;;4.43;;
76113;SDS011;64845;53.086;5.834;2023-03-25T05:09:02;45.42;;;5.72;;
76113;SDS011;64845;53.086;5.834;2023-03-25T05:11:29;29.48;;;4.30;;
76113;SDS011;64845;53.086;5.834;2023-03-25T05:13:56;25.70;;;4.07;;
76113;SDS011;64845;53.086;5.834;2023-03-25T05:16:21;32.60;;;4.03;;
76113;SDS011;64845;53.086;5.834;2023-03-25T05:18:47;46.35;;;5.88;;
76113;SDS011;64845;53.086;5.834;2023-03-25T05:21:13;26.80;;;4.82;;
76113;SDS011;64845;53.086;5.834;2023-03-25T05:23:40;37.80;;;5.80;;
76113;SDS011;64845;53.086;5.834;2023-03-25T05:26:06;46.28;;;5.68;;
76113;SDS011;64845;53.086;5.834;2023-03-25T05:28:32;20.08;;;3.40;;
76113;SDS011;64845;53.086;5.834;2023-03-25T05:30:57;43.10;;;5.40;;
76113;SDS011;64845;53.086;5.834;2023-03-25T05:33:23;36.65;;;7.07;;
76113;SDS011;64845;53.086;5.834;2023-03-25T05:35:49;36.05;;;5.18;;
76113;SDS011;64845;53.086;5.834;2023-03-25T05:38:14;34.50;;;5.00;;
76113;SDS011;64845;53.086;5.834;2023-03-25T05:40:47;41.88;;;5.10;;
76113;SDS011;64845;53.086;5.834;2023-03-25T05:43:13;37.40;;;4.68;;
76113;SDS011;64845;53.086;5.834;2023-03-25T05:45:40;32.60;;;5.03;;
76113;SDS011;64845;53.086;5.834;2023-03-25T05:48:06;31.92;;;4.75;;
76113;SDS011;64845;53.086;5.834;2023-03-25T05:50:32;35.45;;;5.13;;
76113;SDS011;64845;53.086;5.834;2023-03-25T05:52:58;29.83;;;4.13;;
76113;SDS011;64845;53.086;5.834;2023-03-25T05:55:23;34.47;;;5.50;;
76113;SDS011;64845;53.086;5.834;2023-03-25T05:57:50;25.45;;;3.92;;
76113;SDS011;64845;53.086;5.834;2023-03-25T06:00:16;33.35;;;4.93;;
76113;SDS011;64845;53.086;5.834;2023-03-25T06:02:45;34.08;;;4.35;;
76113;SDS011;64845;53.086;5.834;2023-03-25T06:05:12;15.40;;;3.60;;
76113;SDS011;64845;53.086;5.834;2023-03-25T06:07:43;18.83;;;3.53;;
76113;SDS011;64845;53.086;5.834;2023-03-25T06:10:14;21.00;;;4.10;;
76113;SDS011;64845;53.086;5.834;2023-03-25T06:12:41;23.80;;;3.67;;
76113;SDS011;64845;53.086;5.834;2023-03-25T06:15:08;17.52;;;3.58;;
76113;SDS011;64845;53.086;5.834;2023-03-25T06:17:35;22.25;;;4.13;;
76113;SDS011;64845;53.086;5.834;2023-03-25T06:20:04;28.65;;;4.10;;
76113;SDS011;64845;53.086;5.834;2023-03-25T06:22:43;15.75;;;3.05;;
76113;SDS011;64845;53.086;5.834;2023-03-25T06:25:10;25.38;;;4.10;;
76113;SDS011;64845;53.086;5.834;2023-03-25T06:27:38;13.60;;;3.25;;
76113;SDS011;64845;53.086;5.834;2023-03-25T06:30:08;23.55;;;3.55;;
76113;SDS011;64845;53.086;5.834;2023-03-25T06:32:36;18.02;;;4.50;;
76113;SDS011;64845;53.086;5.834;2023-03-25T06:35:02;21.63;;;3.80;;
76113;SDS011;64845;53.086;5.834;2023-03-25T06:37:29;17.67;;;3.38;;
76113;SDS011;64845;53.086;5.834;2023-03-25T06:39:55;16.85;;;3.33;;
76113;SDS011;64845;53.086;5.834;2023-03-25T06:42:24;24.13;;;4.22;;
76113;SDS011;64845;53.086;5.834;2023-03-25T06:44:53;22.83;;;3.05;;
76113;SDS011;64845;53.086;5.834;2023-03-25T06:47:18;23.00;;;2.83;;
76113;SDS011;64845;53.086;5.834;2023-03-25T06:49:44;20.58;;;2.75;;
76113;SDS011;64845;53.086;5.834;2023-03-25T06:52:10;22.33;;;3.47;;
76113;SDS011;64845;53.086;5.834;2023-03-25T06:54:36;15.90;;;2.53;;
76113;SDS011;64845;53.086;5.834;2023-03-25T06:57:02;26.10;;;3.47;;
76113;SDS011;64845;53.086;5.834;2023-03-25T06:59:28;22.38;;;2.90;;
76113;SDS011;64845;53.086;5.834;2023-03-25T07:01:53;18.38;;;3.25;;
76113;SDS011;64845;53.086;5.834;2023-03-25T07:04:19;16.95;;;2.85;;
76113;SDS011;64845;53.086;5.834;2023-03-25T07:06:44;21.17;;;2.75;;
76113;SDS011;64845;53.086;5.834;2023-03-25T07:09:09;22.63;;;3.25;;
76113;SDS011;64845;53.086;5.834;2023-03-25T07:11:35;16.90;;;2.50;;
76113;SDS011;64845;53.086;5.834;2023-03-25T07:14:00;13.43;;;2.38;;
76113;SDS011;64845;53.086;5.834;2023-03-25T07:16:26;25.10;;;3.10;;
76113;SDS011;64845;53.086;5.834;2023-03-25T07:18:51;19.98;;;2.83;;
76113;SDS011;64845;53.086;5.834;2023-03-25T07:21:18;12.57;;;2.60;;
76113;SDS011;64845;53.086;5.834;2023-03-25T07:23:44;18.92;;;3.40;;
76113;SDS011;64845;53.086;5.834;2023-03-25T07:26:10;17.92;;;3.40;;
76113;SDS011;64845;53.086;5.834;2023-03-25T07:28:37;8.00;;;1.88;;
76113;SDS011;64845;53.086;5.834;2023-03-25T07:31:12;22.55;;;3.70;;
76113;SDS011;64845;53.086;5.834;2023-03-25T07:33:55;17.48;;;2.45;;
76113;SDS011;64845;53.086;5.834;2023-03-25T07:36:23;26.80;;;3.35;;
76113;SDS011;64845;53.086;5.834;2023-03-25T07:38:49;17.20;;;2.80;;
76113;SDS011;64845;53.086;5.834;2023-03-25T07:41:14;17.58;;;2.53;;
76113;SDS011;64845;53.086;5.834;2023-03-25T07:43:40;15.60;;;2.80;;
76113;SDS011;64845;53.086;5.834;2023-03-25T07:46:07;11.70;;;2.50;;
76113;SDS011;64845;53.086;5.834;2023-03-25T07:48:32;17.63;;;2.30;;
76113;SDS011;64845;53.086;5.834;2023-03-25T07:50:58;18.08;;;3.13;;
76113;SDS011;64845;53.086;5.834;2023-03-25T07:53:23;30.60;;;3.08;;
76113;SDS011;64845;53.086;5.834;2023-03-25T07:55:49;14.95;;;2.10;;
76113;SDS011;64845;53.086;5.834;2023-03-25T07:58:15;13.18;;;2.38;;
76113;SDS011;64845;53.086;5.834;2023-03-25T08:00:42;17.33;;;3.30;;
76113;SDS011;64845;53.086;5.834;2023-03-25T08:03:09;19.60;;;3.67;;
76113;SDS011;64845;53.086;5.834;2023-03-25T08:05:35;24.90;;;3.03;;
76113;SDS011;64845;53.086;5.834;2023-03-25T08:08:03;23.13;;;2.65;;
76113;SDS011;64845;53.086;5.834;2023-03-25T08:10:29;15.45;;;2.75;;
76113;SDS011;64845;53.086;5.834;2023-03-25T08:12:55;20.73;;;2.78;;
76113;SDS011;64845;53.086;5.834;2023-03-25T08:15:20;18.20;;;2.92;;
76113;SDS011;64845;53.086;5.834;2023-03-25T08:17:48;14.73;;;2.83;;
76113;SDS011;64845;53.086;5.834;2023-03-25T08:20:16;15.73;;;2.90;;
76113;SDS011;64845;53.086;5.834;2023-03-25T08:22:42;21.80;;;3.50;;
76113;SDS011;64845;53.086;5.834;2023-03-25T08:25:09;24.17;;;3.17;;
76113;SDS011;64845;53.086;5.834;2023-03-25T08:27:35;10.57;;;2.42;;
76113;SDS011;64845;53.086;5.834;2023-03-25T08:30:00;9.68;;;2.30;;
76113;SDS011;64845;53.086;5.834;2023-03-25T08:32:26;19.30;;;2.85;;
76113;SDS011;64845;53.086;5.834;2023-03-25T08:34:52;12.98;;;2.20;;
76113;SDS011;64845;53.086;5.834;2023-03-25T08:37:19;19.02;;;4.28;;
76113;SDS011;64845;53.086;5.834;2023-03-25T08:39:45;20.83;;;3.13;;
76113;SDS011;64845;53.086;5.834;2023-03-25T08:42:14;21.58;;;2.90;;
76113;SDS011;64845;53.086;5.834;2023-03-25T08:44:40;19.92;;;2.80;;
76113;SDS011;64845;53.086;5.834;2023-03-25T08:47:06;18.58;;;2.70;;
76113;SDS011;64845;53.086;5.834;2023-03-25T08:49:32;18.70;;;3.15;;
76113;SDS011;64845;53.086;5.834;2023-03-25T08:51:57;20.98;;;2.75;;
76113;SDS011;64845;53.086;5.834;2023-03-25T08:54:24;22.75;;;2.47;;
76113;SDS011;64845;53.086;5.834;2023-03-25T08:56:51;18.77;;;2.45;;
76113;SDS011;64845;53.086;5.834;2023-03-25T08:59:16;19.23;;;2.78;;
76113;SDS011;64845;53.086;5.834;2023-03-25T09:01:42;14.02;;;2.78;;
76113;SDS011;64845;53.086;5.834;2023-03-25T09:04:08;20.17;;;2.45;;
76113;SDS011;64845;53.086;5.834;2023-03-25T09:06:34;24.58;;;3.80;;
76113;SDS011;64845;53.086;5.834;2023-03-25T09:09:00;13.15;;;3.30;;
76113;SDS011;64845;53.086;5.834;2023-03-25T09:11:26;11.52;;;2.55;;
76113;SDS011;64845;53.086;5.834;2023-03-25T09:13:51;19.75;;;2.65;;
76113;SDS011;64845;53.086;5.834;2023-03-25T09:16:17;14.35;;;2.50;;
76113;SDS011;64845;53.086;5.834;2023-03-25T09:18:42;22.50;;;2.67;;
76113;SDS011;64845;53.086;5.834;2023-03-25T09:21:07;20.88;;;2.40;;
76113;SDS011;64845;53.086;5.834;2023-03-25T09:23:33;24.38;;;3.60;;
76113;SDS011;64845;53.086;5.834;2023-03-25T09:25:59;15.77;;;3.00;;
76113;SDS011;64845;53.086;5.834;2023-03-25T09:28:26;21.10;;;2.35;;
76113;SDS011;64845;53.086;5.834;2023-03-25T09:30:52;22.05;;;2.70;;
76113;SDS011;64845;53.086;5.834;2023-03-25T09:33:19;17.65;;;3.22;;
76113;SDS011;64845;53.086;5.834;2023-03-25T09:35:44;18.50;;;2.88;;
76113;SDS011;64845;53.086;5.834;2023-03-25T09:38:11;21.17;;;2.55;;
76113;SDS011;64845;53.086;5.834;2023-03-25T09:40:39;15.90;;;2.83;;
76113;SDS011;64845;53.086;5.834;2023-03-25T09:45:58;15.27;;;3.15;;
76113;SDS011;64845;53.086;5.834;2023-03-25T09:51:10;21.15;;;3.65;;
76113;SDS011;64845;53.086;5.834;2023-03-25T09:56:06;19.17;;;3.90;;
76113;SDS011;64845;53.086;5.834;2023-03-25T09:58:42;21.02;;;2.88;;
76113;SDS011;64845;53.086;5.834;2023-03-25T10:15:20;18.23;;;3.10;;
76113;SDS011;64845;53.086;5.834;2023-03-25T10:18:22;29.17;;;3.47;;
76113;SDS011;64845;53.086;5.834;2023-03-25T10:23:35;18.77;;;3.55;;
76113;SDS011;64845;53.086;5.834;2023-03-25T10:26:08;21.90;;;3.15;;
76113;SDS011;64845;53.086;5.834;2023-03-25T10:28:40;23.20;;;2.95;;
76113;SDS011;64845;53.086;5.834;2023-03-25T10:31:15;30.77;;;4.22;;
76113;SDS011;64845;53.086;5.834;2023-03-25T10:33:50;22.00;;;3.35;;
76113;SDS011;64845;53.086;5.834;2023-03-25T10:36:18;24.13;;;3.55;;
76113;SDS011;64845;53.086;5.834;2023-03-25T10:38:52;20.38;;;4.03;;
76113;SDS011;64845;53.086;5.834;2023-03-25T10:41:32;22.85;;;3.53;;
76113;SDS011;64845;53.086;5.834;2023-03-25T10:44:05;17.63;;;3.28;;
76113;SDS011;64845;53.086;5.834;2023-03-25T10:47:06;22.90;;;3.05;;
76113;SDS011;64845;53.086;5.834;2023-03-25T10:49:28;12.45;;;2.50;;
76113;SDS011;64845;53.086;5.834;2023-03-25T10:51:55;17.42;;;2.97;;
76113;SDS011;64845;53.086;5.834;2023-03-25T10:54:24;19.08;;;2.67;;
76113;SDS011;64845;53.086;5.834;2023-03-25T10:56:54;18.60;;;2.58;;
76113;SDS011;64845;53.086;5.834;2023-03-25T11:02:00;21.67;;;3.45;;
76113;SDS011;64845;53.086;5.834;2023-03-25T11:04:36;11.65;;;2.63;;
76113;SDS011;64845;53.086;5.834;2023-03-25T11:07:12;25.42;;;3.47;;
76113;SDS011;64845;53.086;5.834;2023-03-25T11:09:43;14.13;;;2.67;;
76113;SDS011;64845;53.086;5.834;2023-03-25T11:12:09;11.65;;;2.53;;
76113;SDS011;64845;53.086;5.834;2023-03-25T11:14:38;12.57;;;2.42;;
76113;SDS011;64845;53.086;5.834;2023-03-25T11:17:13;20.98;;;3.85;;
76113;SDS011;64845;53.086;5.834;2023-03-25T11:19:43;13.60;;;2.63;;
76113;SDS011;64845;53.086;5.834;2023-03-25T11:22:26;14.43;;;3.00;;
76113;SDS011;64845;53.086;5.834;2023-03-25T11:24:58;22.00;;;3.60;;
76113;SDS011;64845;53.086;5.834;2023-03-25T11:27:46;22.55;;;2.97;;
76113;SDS011;64845;53.086;5.834;2023-03-25T11:30:17;16.42;;;2.72;;
76113;SDS011;64845;53.086;5.834;2023-03-25T11:32:44;15.00;;;2.50;;
76113;SDS011;64845;53.086;5.834;2023-03-25T11:35:24;10.27;;;2.13;;
76113;SDS011;64845;53.086;5.834;2023-03-25T11:37:56;19.17;;;3.25;;
76113;SDS011;64845;53.086;5.834;2023-03-25T11:40:23;13.77;;;2.55;;
76113;SDS011;64845;53.086;5.834;2023-03-25T11:42:51;17.20;;;2.70;;
76113;SDS011;64845;53.086;5.834;2023-03-25T11:45:22;11.43;;;2.58;;
76113;SDS011;64845;53.086;5.834;2023-03-25T11:47:48;14.60;;;2.42;;
76113;SDS011;64845;53.086;5.834;2023-03-25T11:50:21;15.25;;;2.85;;
76113;SDS011;64845;53.086;5.834;2023-03-25T11:52:51;16.88;;;2.90;;
76113;SDS011;64845;53.086;5.834;2023-03-25T11:55:27;16.63;;;3.10;;
76113;SDS011;64845;53.086;5.834;2023-03-25T11:57:55;12.10;;;2.60;;
76113;SDS011;64845;53.086;5.834;2023-03-25T12:05:35;13.10;;;2.83;;
76113;SDS011;64845;53.086;5.834;2023-03-25T12:10:36;20.65;;;3.40;;
76113;SDS011;64845;53.086;5.834;2023-03-25T12:13:16;11.77;;;3.00;;
76113;SDS011;64845;53.086;5.834;2023-03-25T12:19:10;13.77;;;2.80;;
76113;SDS011;64845;53.086;5.834;2023-03-25T12:27:27;16.85;;;2.97;;
76113;SDS011;64845;53.086;5.834;2023-03-25T12:35:41;21.38;;;3.75;;
76113;SDS011;64845;53.086;5.834;2023-03-25T12:41:41;10.60;;;2.22;;
76113;SDS011;64845;53.086;5.834;2023-03-25T12:49:57;13.93;;;2.58;;
76113;SDS011;64845;53.086;5.834;2023-03-25T12:52:37;14.32;;;3.15;;
76113;SDS011;64845;53.086;5.834;2023-03-25T13:00:59;13.73;;;2.08;;
76113;SDS011;64845;53.086;5.834;2023-03-25T13:06:14;13.18;;;2.85;;
76113;SDS011;64845;53.086;5.834;2023-03-25T13:11:36;12.43;;;2.35;;
76113;SDS011;64845;53.086;5.834;2023-03-25T13:14:06;14.68;;;2.92;;
76113;SDS011;64845;53.086;5.834;2023-03-25T13:16:40;11.25;;;2.30;;
76113;SDS011;64845;53.086;5.834;2023-03-25T13:19:18;10.60;;;2.15;;
76113;SDS011;64845;53.086;5.834;2023-03-25T13:22:30;20.42;;;2.90;;
76113;SDS011;64845;53.086;5.834;2023-03-25T13:24:54;8.93;;;1.83;;
76113;SDS011;64845;53.086;5.834;2023-03-25T13:27:23;20.00;;;3.58;;
76113;SDS011;64845;53.086;5.834;2023-03-25T13:29:51;13.20;;;2.35;;
76113;SDS011;64845;53.086;5.834;2023-03-25T13:32:26;14.90;;;2.72;;
76113;SDS011;64845;53.086;5.834;2023-03-25T13:35:10;9.70;;;2.78;;
76113;SDS011;64845;53.086;5.834;2023-03-25T13:37:40;10.27;;;2.13;;
76113;SDS011;64845;53.086;5.834;2023-03-25T13:40:25;5.10;;;1.70;;
76113;SDS011;64845;53.086;5.834;2023-03-25T13:45:24;9.48;;;1.77;;
76113;SDS011;64845;53.086;5.834;2023-03-25T13:50:36;11.50;;;2.25;;
76113;SDS011;64845;53.086;5.834;2023-03-25T13:55:37;11.80;;;2.03;;
76113;SDS011;64845;53.086;5.834;2023-03-25T14:14:39;17.58;;;2.85;;
76113;SDS011;64845;53.086;5.834;2023-03-25T14:17:09;10.77;;;1.98;;
76113;SDS011;64845;53.086;5.834;2023-03-25T14:19:38;11.68;;;2.75;;
76113;SDS011;64845;53.086;5.834;2023-03-25T14:22:16;13.73;;;2.40;;
76113;SDS011;64845;53.086;5.834;2023-03-25T14:24:46;12.55;;;2.45;;
76113;SDS011;64845;53.086;5.834;2023-03-25T14:27:14;12.65;;;2.63;;
76113;SDS011;64845;53.086;5.834;2023-03-25T14:34:45;14.93;;;2.83;;
76113;SDS011;64845;53.086;5.834;2023-03-25T14:39:51;8.38;;;1.83;;
76113;SDS011;64845;53.086;5.834;2023-03-25T14:42:29;13.15;;;2.22;;
76113;SDS011;64845;53.086;5.834;2023-03-25T14:47:54;10.75;;;2.05;;
76113;SDS011;64845;53.086;5.834;2023-03-25T14:52:46;9.85;;;2.20;;
76113;SDS011;64845;53.086;5.834;2023-03-25T14:57:50;12.65;;;2.90;;
76113;SDS011;64845;53.086;5.834;2023-03-25T15:00:32;14.80;;;2.50;;
76113;SDS011;64845;53.086;5.834;2023-03-25T15:03:09;12.93;;;2.17;;
76113;SDS011;64845;53.086;5.834;2023-03-25T15:05:37;13.18;;;3.63;;
76113;SDS011;64845;53.086;5.834;2023-03-25T15:10:49;12.20;;;2.08;;
76113;SDS011;64845;53.086;5.834;2023-03-25T15:13:28;14.05;;;3.13;;
76113;SDS011;64845;53.086;5.834;2023-03-25T15:16:01;11.52;;;1.67;;
76113;SDS011;64845;53.086;5.834;2023-03-25T15:21:15;8.25;;;1.63;;
76113;SDS011;64845;53.086;5.834;2023-03-25T15:26:49;10.13;;;2.00;;
76113;SDS011;64845;53.086;5.834;2023-03-25T15:40:44;7.45;;;1.40;;
76113;SDS011;64845;53.086;5.834;2023-03-25T15:57:25;8.45;;;2.20;;
76113;SDS011;64845;53.086;5.834;2023-03-25T16:02:44;9.98;;;1.92;;
76113;SDS011;64845;53.086;5.834;2023-03-25T16:05:16;9.52;;;1.63;;
76113;SDS011;64845;53.086;5.834;2023-03-25T16:07:43;13.20;;;1.98;;
76113;SDS011;64845;53.086;5.834;2023-03-25T16:10:12;12.95;;;1.88;;
76113;SDS011;64845;53.086;5.834;2023-03-25T16:12:49;9.60;;;1.88;;
76113;SDS011;64845;53.086;5.834;2023-03-25T16:15:15;10.20;;;2.22;;
76113;SDS011;64845;53.086;5.834;2023-03-25T16:17:42;13.90;;;2.15;;
76113;SDS011;64845;53.086;5.834;2023-03-25T16:20:13;10.20;;;1.98;;
76113;SDS011;64845;53.086;5.834;2023-03-25T16:22:42;11.55;;;1.50;;
76113;SDS011;64845;53.086;5.834;2023-03-25T16:25:13;9.18;;;1.70;;
76113;SDS011;64845;53.086;5.834;2023-03-25T16:27:44;12.90;;;2.30;;
76113;SDS011;64845;53.086;5.834;2023-03-25T16:30:47;11.25;;;2.08;;
76113;SDS011;64845;53.086;5.834;2023-03-25T16:35:31;8.85;;;2.30;;
76113;SDS011;64845;53.086;5.834;2023-03-25T16:37:59;13.88;;;2.00;;
76113;SDS011;64845;53.086;5.834;2023-03-25T16:40:27;15.43;;;2.10;;
76113;SDS011;64845;53.086;5.834;2023-03-25T16:43:18;15.98;;;2.78;;
76113;SDS011;64845;53.086;5.834;2023-03-25T16:45:47;17.10;;;2.50;;
76113;SDS011;64845;53.086;5.834;2023-03-25T16:48:27;10.82;;;1.92;;
76113;SDS011;64845;53.086;5.834;2023-03-25T16:50:56;12.77;;;2.70;;
76113;SDS011;64845;53.086;5.834;2023-03-25T16:53:24;12.45;;;1.85;;
76113;SDS011;64845;53.086;5.834;2023-03-25T16:56:00;16.17;;;2.78;;
76113;SDS011;64845;53.086;5.834;2023-03-25T16:59:27;19.20;;;3.50;;
76113;SDS011;64845;53.086;5.834;2023-03-25T17:01:53;16.58;;;2.78;;
76113;SDS011;64845;53.086;5.834;2023-03-25T17:04:21;27.25;;;4.18;;
76113;SDS011;64845;53.086;5.834;2023-03-25T17:06:51;14.85;;;3.05;;
76113;SDS011;64845;53.086;5.834;2023-03-25T17:09:20;11.20;;;1.98;;
76113;SDS011;64845;53.086;5.834;2023-03-25T17:11:53;16.65;;;2.75;;
76113;SDS011;64845;53.086;5.834;2023-03-25T17:14:21;16.42;;;3.10;;
76113;SDS011;64845;53.086;5.834;2023-03-25T17:16:51;19.02;;;3.35;;
76113;SDS011;64845;53.086;5.834;2023-03-25T17:19:17;14.75;;;2.65;;
76113;SDS011;64845;53.086;5.834;2023-03-25T17:22:12;3.67;;;1.20;;
76113;SDS011;64845;53.086;5.834;2023-03-25T17:24:53;10.30;;;2.33;;
76113;SDS011;64845;53.086;5.834;2023-03-25T17:27:31;12.00;;;1.88;;
76113;SDS011;64845;53.086;5.834;2023-03-25T17:29:59;16.67;;;2.17;;
76113;SDS011;64845;53.086;5.834;2023-03-25T17:32:42;16.30;;;2.55;;
76113;SDS011;64845;53.086;5.834;2023-03-25T17:35:15;8.30;;;2.25;;
76113;SDS011;64845;53.086;5.834;2023-03-25T17:37:49;13.48;;;2.80;;
76113;SDS011;64845;53.086;5.834;2023-03-25T17:40:22;9.10;;;1.95;;
76113;SDS011;64845;53.086;5.834;2023-03-25T17:42:50;14.98;;;2.90;;
76113;SDS011;64845;53.086;5.834;2023-03-25T17:45:16;16.70;;;2.58;;
76113;SDS011;64845;53.086;5.834;2023-03-25T17:47:43;15.23;;;2.50;;
76113;SDS011;64845;53.086;5.834;2023-03-25T17:50:11;16.75;;;2.55;;
76113;SDS011;64845;53.086;5.834;2023-03-25T17:52:38;11.75;;;2.28;;
76113;SDS011;64845;53.086;5.834;2023-03-25T17:55:04;14.18;;;2.47;;
76113;SDS011;64845;53.086;5.834;2023-03-25T17:57:30;11.68;;;2.25;;
76113;SDS011;64845;53.086;5.834;2023-03-25T17:59:55;15.02;;;2.58;;
76113;SDS011;64845;53.086;5.834;2023-03-25T18:02:22;6.88;;;1.98;;
76113;SDS011;64845;53.086;5.834;2023-03-25T18:04:48;16.95;;;3.00;;
76113;SDS011;64845;53.086;5.834;2023-03-25T18:07:13;9.57;;;1.95;;
76113;SDS011;64845;53.086;5.834;2023-03-25T18:09:39;15.20;;;2.92;;
76113;SDS011;64845;53.086;5.834;2023-03-25T18:12:05;18.85;;;3.95;;